Time;durP1;ratioP1;P1;durP2;ratioP2;P2;SDS_P1;SDS_P2;PMS_P1;PMS_P2;Temp;Humidity;BMP_temperature;BMP_pressure;BME280_temperature;BME280_humidity;BME280_pressure;Samples;Min_cycle;Max_cycle;Signal;HPM_P1;HPM_P2
2021/07/01 00:00:21;;;;;;;17.05;3.95;;;14.10;99.90;;;;;;5078680;28;20089;-70
2021/07/01 00:02:47;;;;;;;17.98;4.20;;;14.20;99.90;;;;;;5078584;28;20388;-70
2021/07/01 00:05:15;;;;;;;18.05;4.78;;;14.10;99.90;;;;;;5079519;28;20396;-71
2021/07/01 00:07:42;;;;;;;20.77;5.63;;;14.10;99.90;;;;;;5059467;28;20028;-70
2021/07/01 00:10:19;;;;;;;16.75;3.85;;;14.10;99.90;;;;;;5079970;28;20075;-73
2021/07/01 00:12:45;;;;;;;16.42;4.50;;;14.00;99.90;;;;;;5078130;28;20021;-71
2021/07/01 00:15:13;;;;;;;20.77;4.40;;;14.00;99.90;;;;;;5079910;28;20020;-70
2021/07/01 00:17:40;;;;;;;11.85;4.13;;;14.00;99.90;;;;;;5059286;28;20048;-70
2021/07/01 00:20:07;;;;;;;18.25;4.05;;;13.90;99.90;;;;;;5080649;28;20244;-70
2021/07/01 00:22:33;;;;;;;16.80;4.20;;;13.90;99.90;;;;;;5062829;28;20044;-70
2021/07/01 00:24:59;;;;;;;19.05;5.50;;;13.90;99.90;;;;;;5077266;28;20036;-70
2021/07/01 00:27:24;;;;;;;20.38;4.50;;;13.90;99.90;;;;;;5061966;28;20036;-70
2021/07/01 00:29:50;;;;;;;13.95;3.58;;;13.90;99.90;;;;;;5059816;28;20036;-70
2021/07/01 00:32:15;;;;;;;17.45;4.88;;;13.90;99.90;;;;;;5061244;28;20497;-70
2021/07/01 00:34:41;;;;;;;17.42;4.40;;;13.90;99.90;;;;;;5060543;28;20372;-70
2021/07/01 00:37:07;;;;;;;12.48;3.22;;;13.90;99.90;;;;;;5077660;28;20300;-72
2021/07/01 00:39:32;;;;;;;13.57;3.25;;;13.90;99.90;;;;;;5058006;28;20054;-70
2021/07/01 00:41:58;;;;;;;12.27;3.42;;;13.90;99.90;;;;;;5079826;28;20034;-70
2021/07/01 00:44:23;;;;;;;15.63;2.88;;;14.00;99.90;;;;;;5059188;28;20491;-71
2021/07/01 00:46:49;;;;;;;22.52;4.10;;;14.00;99.90;;;;;;5077171;28;20467;-71
2021/07/01 00:49:15;;;;;;;14.13;4.35;;;14.00;99.90;;;;;;5076004;28;20725;-70
2021/07/01 00:51:40;;;;;;;14.02;3.30;;;14.00;99.90;;;;;;5078949;28;20089;-70
2021/07/01 00:54:07;;;;;;;22.92;4.53;;;14.00;99.90;;;;;;5076078;28;20056;-70
2021/07/01 00:56:38;;;;;;;20.55;3.88;;;14.00;99.90;;;;;;5076972;28;20043;-70
2021/07/01 00:59:06;;;;;;;15.02;3.38;;;14.00;99.90;;;;;;5079253;28;20032;-70
2021/07/01 01:01:33;;;;;;;14.68;3.60;;;14.00;99.90;;;;;;5076967;28;20040;-70
2021/07/01 01:03:58;;;;;;;13.70;3.95;;;14.00;99.90;;;;;;5077468;28;20047;-70
2021/07/01 01:06:24;;;;;;;16.00;3.95;;;14.00;99.90;;;;;;5083130;28;20024;-70
2021/07/01 01:08:50;;;;;;;15.73;4.60;;;14.00;99.90;;;;;;5062365;28;20044;-73
2021/07/01 01:11:16;;;;;;;12.98;3.70;;;14.00;99.90;;;;;;5064534;28;20036;-70
2021/07/01 01:13:45;;;;;;;15.80;4.32;;;14.10;99.90;;;;;;5081868;28;20063;-70
2021/07/01 01:16:11;;;;;;;17.08;3.88;;;14.00;99.90;;;;;;5063147;28;20052;-70
2021/07/01 01:18:37;;;;;;;17.48;3.38;;;14.10;99.90;;;;;;5064631;28;20491;-70
2021/07/01 01:21:03;;;;;;;22.65;3.20;;;14.10;99.90;;;;;;5079834;28;20480;-70
2021/07/01 01:23:29;;;;;;;19.40;4.00;;;14.10;99.90;;;;;;5083639;28;20543;-70
2021/07/01 01:25:58;;;;;;;17.95;3.45;;;14.10;99.90;;;;;;5075200;28;20492;-70
2021/07/01 01:28:24;;;;;;;14.80;2.97;;;14.10;99.90;;;;;;5065234;28;20043;-70
2021/07/01 01:30:49;;;;;;;11.88;2.78;;;14.10;99.90;;;;;;5060449;28;20119;-70
2021/07/01 01:33:15;;;;;;;17.05;3.40;;;14.10;99.90;;;;;;5080641;28;20035;-69
2021/07/01 01:35:41;;;;;;;16.48;3.33;;;14.10;99.90;;;;;;5062726;28;20037;-70
2021/07/01 01:38:12;;;;;;;15.02;3.47;;;14.10;99.90;;;;;;5063560;28;20016;-69
2021/07/01 01:40:40;;;;;;;20.25;3.47;;;14.10;99.90;;;;;;5063986;28;20788;-69
2021/07/01 01:43:06;;;;;;;20.02;3.28;;;14.10;99.90;;;;;;5079812;28;20028;-70
2021/07/01 01:45:32;;;;;;;12.52;3.50;;;14.00;99.90;;;;;;5083094;28;20436;-70
2021/07/01 01:47:58;;;;;;;12.20;3.33;;;14.10;99.90;;;;;;5060358;28;20029;-69
2021/07/01 01:50:24;;;;;;;24.15;4.57;;;14.00;99.90;;;;;;5075428;28;20033;-69
2021/07/01 01:52:50;;;;;;;22.27;4.55;;;14.10;99.90;;;;;;5079505;28;20040;-70
2021/07/01 01:55:17;;;;;;;20.00;3.67;;;14.10;99.90;;;;;;5060700;28;20036;-70
2021/07/01 01:57:47;;;;;;;15.40;3.38;;;14.00;99.90;;;;;;5081958;28;20032;-69
2021/07/01 02:00:15;;;;;;;14.90;4.13;;;14.00;99.90;;;;;;5059933;28;20025;-71
2021/07/01 02:02:41;;;;;;;17.27;3.13;;;14.00;99.90;;;;;;5080544;28;20042;-72
2021/07/01 02:05:09;;;;;;;12.48;3.78;;;14.00;99.90;;;;;;5071468;28;20041;-69
2021/07/01 02:07:35;;;;;;;15.13;3.33;;;14.00;99.90;;;;;;5081726;28;20032;-70
2021/07/01 02:10:05;;;;;;;17.02;3.35;;;14.00;99.90;;;;;;5061101;28;20032;-70
2021/07/01 02:12:31;;;;;;;9.98;3.30;;;14.00;99.90;;;;;;5082113;28;20166;-70
2021/07/01 02:14:58;;;;;;;20.98;3.95;;;14.00;99.90;;;;;;5078252;28;20094;-70
2021/07/01 02:17:24;;;;;;;13.10;3.63;;;14.00;99.90;;;;;;5063873;28;20031;-70
2021/07/01 02:19:49;;;;;;;17.20;3.58;;;14.00;99.90;;;;;;5079184;28;20762;-70
2021/07/01 02:22:15;;;;;;;14.93;4.35;;;13.90;99.90;;;;;;5079561;28;20060;-70
2021/07/01 02:24:41;;;;;;;15.88;3.10;;;13.90;99.90;;;;;;5064368;28;20036;-70
2021/07/01 02:27:07;;;;;;;12.30;3.13;;;13.90;99.90;;;;;;5062413;28;20074;-70
2021/07/01 02:29:33;;;;;;;13.93;2.88;;;13.90;99.90;;;;;;5079400;28;20446;-70
2021/07/01 02:31:58;;;;;;;14.25;2.78;;;13.90;99.90;;;;;;5081971;28;20040;-72
2021/07/01 02:34:24;;;;;;;13.80;2.83;;;13.90;99.90;;;;;;5078117;28;20388;-72
2021/07/01 02:36:50;;;;;;;19.90;3.95;;;13.90;99.90;;;;;;5081925;28;20036;-71
2021/07/01 02:39:15;;;;;;;16.88;3.17;;;13.90;99.90;;;;;;5080358;28;20048;-70
2021/07/01 02:41:42;;;;;;;16.63;3.17;;;13.90;99.90;;;;;;5062170;28;20051;-72
2021/07/01 02:44:07;;;;;;;14.13;2.80;;;13.90;99.90;;;;;;5079965;28;20036;-70
2021/07/01 02:46:33;;;;;;;15.13;3.60;;;13.90;99.90;;;;;;5080608;28;20135;-70
2021/07/01 02:48:58;;;;;;;12.65;3.47;;;13.90;99.90;;;;;;5081159;28;20040;-73
2021/07/01 02:51:24;;;;;;;17.63;3.22;;;13.90;99.90;;;;;;5075966;28;20071;-70
2021/07/01 02:53:50;;;;;;;11.27;3.50;;;13.90;99.90;;;;;;5074550;28;20032;-70
2021/07/01 02:56:16;;;;;;;18.02;3.70;;;13.90;99.90;;;;;;5079526;28;20035;-73
2021/07/01 02:58:41;;;;;;;14.88;3.50;;;14.00;99.90;;;;;;5078850;28;20043;-71
2021/07/01 03:01:07;;;;;;;13.82;3.35;;;13.90;99.90;;;;;;5061888;28;20047;-71
2021/07/01 03:03:32;;;;;;;9.13;3.38;;;13.90;99.90;;;;;;5062295;28;20032;-72
2021/07/01 03:05:58;;;;;;;14.00;3.38;;;13.90;99.90;;;;;;5078442;28;20488;-72
2021/07/01 03:08:23;;;;;;;12.52;3.90;;;13.90;99.90;;;;;;5081585;28;20058;-71
2021/07/01 03:10:49;;;;;;;13.95;3.67;;;13.90;99.90;;;;;;5081362;28;20032;-71
2021/07/01 03:13:15;;;;;;;13.85;3.65;;;13.90;99.90;;;;;;5078769;28;20083;-72
2021/07/01 03:15:41;;;;;;;13.05;3.83;;;13.90;99.90;;;;;;5079416;28;20037;-72
2021/07/01 03:18:07;;;;;;;18.02;3.40;;;13.90;99.90;;;;;;5079580;28;20086;-72
2021/07/01 03:20:32;;;;;;;14.48;3.53;;;13.90;99.90;;;;;;5078754;28;20029;-71
2021/07/01 03:22:58;;;;;;;16.20;4.50;;;13.90;99.90;;;;;;5080817;28;20067;-71
2021/07/01 03:25:23;;;;;;;12.13;4.07;;;13.90;99.90;;;;;;5077449;28;20488;-72
2021/07/01 03:27:49;;;;;;;13.13;4.47;;;13.90;99.90;;;;;;5063019;28;20492;-71
2021/07/01 03:30:15;;;;;;;13.05;4.05;;;13.90;99.90;;;;;;5077749;28;20115;-71
2021/07/01 03:32:40;;;;;;;16.90;3.97;;;13.90;99.90;;;;;;5061768;28;20453;-71
2021/07/01 03:35:06;;;;;;;14.18;4.70;;;13.90;99.90;;;;;;5078792;28;20115;-71
2021/07/01 03:37:32;;;;;;;15.32;5.20;;;13.90;99.90;;;;;;5078651;28;20405;-72
2021/07/01 03:39:58;;;;;;;12.93;3.78;;;13.90;99.90;;;;;;5080416;28;20488;-71
2021/07/01 03:42:25;;;;;;;21.40;4.65;;;13.90;99.90;;;;;;5080633;28;20059;-72
2021/07/01 03:44:50;;;;;;;13.75;4.03;;;13.90;99.90;;;;;;5076590;28;20033;-71
2021/07/01 03:47:16;;;;;;;12.32;4.43;;;13.90;99.90;;;;;;5062047;28;20032;-72
2021/07/01 03:49:42;;;;;;;15.40;4.07;;;13.90;99.90;;;;;;5079891;28;20051;-72
2021/07/01 03:52:07;;;;;;;8.90;3.60;;;13.90;99.90;;;;;;5078654;28;20107;-70
2021/07/01 03:54:34;;;;;;;16.20;3.60;;;13.90;99.90;;;;;;5078394;28;20037;-71
2021/07/01 03:57:00;;;;;;;11.63;3.13;;;13.90;99.90;;;;;;5079622;28;20031;-72
2021/07/01 03:59:26;;;;;;;19.10;3.47;;;13.90;99.90;;;;;;5078011;28;20040;-72
2021/07/01 04:01:52;;;;;;;15.15;4.28;;;14.00;99.90;;;;;;5080273;28;20503;-71
2021/07/01 04:04:17;;;;;;;13.02;3.22;;;13.90;99.90;;;;;;5059385;28;20032;-72
2021/07/01 04:06:43;;;;;;;10.40;3.20;;;14.00;99.90;;;;;;5076789;28;20039;-72
2021/07/01 04:09:09;;;;;;;14.88;3.80;;;14.00;99.90;;;;;;5059255;28;20476;-71
2021/07/01 04:11:35;;;;;;;15.40;3.80;;;14.00;99.90;;;;;;5079289;28;20396;-71
2021/07/01 04:14:01;;;;;;;16.90;3.25;;;14.00;99.90;;;;;;5060699;28;20036;-71
2021/07/01 04:16:27;;;;;;;13.57;3.35;;;13.90;99.90;;;;;;5077988;28;20032;-72
2021/07/01 04:18:52;;;;;;;13.60;3.50;;;14.00;99.90;;;;;;5061787;28;20039;-72
2021/07/01 04:21:19;;;;;;;13.23;3.55;;;14.00;99.90;;;;;;5077065;28;20032;-72
2021/07/01 04:23:45;;;;;;;17.25;3.10;;;14.00;99.90;;;;;;5072725;28;20032;-71
2021/07/01 04:26:11;;;;;;;15.82;3.33;;;13.90;99.90;;;;;;5079615;28;20488;-71
2021/07/01 04:28:36;;;;;;;10.73;3.17;;;13.90;99.90;;;;;;5059705;28;20550;-72
2021/07/01 04:31:02;;;;;;;18.08;4.00;;;13.90;99.90;;;;;;5058560;28;20035;-72
2021/07/01 04:33:28;;;;;;;11.00;3.72;;;13.90;99.90;;;;;;5071331;28;20041;-71
2021/07/01 04:35:54;;;;;;;16.58;3.78;;;13.90;99.90;;;;;;5060743;28;20373;-70
2021/07/01 04:38:20;;;;;;;20.80;4.30;;;13.90;99.90;;;;;;5075630;28;20039;-71
2021/07/01 04:40:46;;;;;;;11.20;3.65;;;13.90;99.90;;;;;;5072872;28;20029;-72
2021/07/01 04:43:12;;;;;;;9.50;3.40;;;13.90;99.90;;;;;;5083684;28;20106;-72
2021/07/01 04:45:38;;;;;;;9.88;3.45;;;13.90;99.90;;;;;;5081552;28;20043;-71
2021/07/01 04:48:07;;;;;;;10.48;2.97;;;13.90;99.90;;;;;;5076631;28;20423;-72
2021/07/01 04:50:33;;;;;;;15.18;4.68;;;13.90;99.90;;;;;;5078884;28;20139;-72
2021/07/01 04:52:58;;;;;;;6.25;2.45;;;13.90;99.90;;;;;;5082290;28;20555;-72
2021/07/01 04:55:24;;;;;;;9.93;3.05;;;13.90;99.90;;;;;;5066708;28;20031;-72
2021/07/01 04:57:50;;;;;;;8.23;3.08;;;13.90;99.90;;;;;;5080039;28;20112;-72
2021/07/01 05:00:16;;;;;;;6.07;3.15;;;13.90;99.90;;;;;;5075746;28;20086;-72
2021/07/01 05:02:41;;;;;;;10.40;3.83;;;14.00;99.90;;;;;;5062516;28;20119;-72
2021/07/01 05:05:08;;;;;;;8.82;3.30;;;14.00;99.90;;;;;;5072847;28;20435;-72
2021/07/01 05:07:39;;;;;;;12.95;3.72;;;14.10;99.90;;;;;;5056606;28;20048;-72
2021/07/01 05:10:05;;;;;;;12.05;3.80;;;14.10;99.90;;;;;;5052531;28;20435;-72
2021/07/01 05:12:31;;;;;;;8.65;3.55;;;14.20;99.90;;;;;;5058101;28;20079;-72
2021/07/01 05:14:56;;;;;;;13.82;4.25;;;14.20;99.90;;;;;;5056440;28;20487;-72
2021/07/01 05:17:22;;;;;;;10.45;3.78;;;14.20;99.90;;;;;;5072103;28;20040;-72
2021/07/01 05:19:48;;;;;;;17.20;4.38;;;14.20;99.90;;;;;;5072818;28;20024;-74
2021/07/01 05:22:13;;;;;;;14.07;4.00;;;14.20;99.90;;;;;;5072543;28;20040;-72
2021/07/01 05:24:39;;;;;;;23.65;5.70;;;14.20;99.90;;;;;;5070279;28;20055;-72
2021/07/01 05:27:04;;;;;;;10.07;3.75;;;14.30;99.90;;;;;;5056460;28;20032;-72
2021/07/01 05:29:30;;;;;;;11.68;3.78;;;14.30;99.90;;;;;;5060473;28;20072;-72
2021/07/01 05:31:56;;;;;;;10.27;4.15;;;14.40;99.90;;;;;;5069619;28;20036;-72
2021/07/01 05:34:22;;;;;;;10.88;3.28;;;14.40;99.90;;;;;;5067960;28;20053;-73
2021/07/01 05:36:47;;;;;;;12.05;3.60;;;14.40;99.90;;;;;;5056098;28;20642;-72
2021/07/01 05:39:13;;;;;;;11.10;3.20;;;14.50;99.90;;;;;;5076954;28;20028;-72
2021/07/01 05:41:39;;;;;;;16.00;3.67;;;14.60;99.90;;;;;;5068928;28;20094;-71
2021/07/01 05:44:04;;;;;;;15.90;3.50;;;14.50;99.90;;;;;;5058980;28;20040;-72
2021/07/01 05:46:30;;;;;;;13.88;3.10;;;14.50;99.90;;;;;;5068519;28;20036;-73
2021/07/01 05:48:57;;;;;;;12.50;2.67;;;14.50;99.90;;;;;;5049704;28;20447;-72
2021/07/01 05:51:23;;;;;;;13.50;3.08;;;14.50;99.90;;;;;;5050717;28;20429;-73
2021/07/01 05:56:14;;;;;;;9.88;3.00;;;14.60;99.90;;;;;;5059461;28;20037;-72
2021/07/01 05:58:40;;;;;;;10.82;2.53;;;14.60;99.90;;;;;;5070645;28;20032;-72
2021/07/01 06:01:05;;;;;;;11.48;3.63;;;14.60;99.90;;;;;;5070089;28;20040;-72
2021/07/01 06:03:32;;;;;;;13.60;3.22;;;14.60;99.90;;;;;;5068665;28;20047;-72
2021/07/01 06:06:07;;;;;;;13.95;3.90;;;14.60;99.90;;;;;;5050115;28;20039;-72
2021/07/01 06:08:34;;;;;;;9.27;2.95;;;14.60;99.90;;;;;;5070820;28;20562;-72
2021/07/01 06:11:02;;;;;;;12.85;3.15;;;14.60;99.90;;;;;;5070060;28;20064;-72
2021/07/01 06:13:34;;;;;;;14.63;2.83;;;14.70;99.90;;;;;;5047754;28;20043;-72
2021/07/01 06:16:01;;;;;;;10.68;3.45;;;14.70;99.90;;;;;;5061334;28;20087;-72
2021/07/01 06:18:26;;;;;;;10.55;3.00;;;14.80;99.90;;;;;;5070688;28;20103;-72
2021/07/01 06:20:53;;;;;;;8.93;2.97;;;14.80;99.90;;;;;;5070408;28;20044;-72
2021/07/01 06:23:18;;;;;;;11.90;2.83;;;14.80;99.90;;;;;;5065245;28;20055;-73
2021/07/01 06:25:48;;;;;;;11.35;2.88;;;14.90;99.90;;;;;;5069219;28;20036;-73
2021/07/01 06:28:14;;;;;;;10.82;3.75;;;14.90;99.90;;;;;;5047921;28;20036;-72
2021/07/01 06:30:42;;;;;;;13.43;2.78;;;14.90;99.90;;;;;;5050020;28;20045;-72
2021/07/01 06:33:10;;;;;;;11.00;3.17;;;15.00;99.90;;;;;;5057183;28;20212;-73
2021/07/01 06:35:36;;;;;;;8.88;3.15;;;15.00;99.90;;;;;;5056354;28;20060;-73
2021/07/01 06:38:09;;;;;;;14.05;3.72;;;14.90;99.90;;;;;;5051012;28;20056;-72
2021/07/01 06:40:35;;;;;;;12.00;3.28;;;14.90;99.90;;;;;;5049974;28;20119;-72
2021/07/01 06:43:02;;;;;;;12.60;3.25;;;15.00;99.90;;;;;;5052612;28;20028;-73
2021/07/01 06:45:28;;;;;;;14.85;3.63;;;15.00;99.90;;;;;;5052589;28;20522;-73
2021/07/01 06:47:56;;;;;;;16.13;4.75;;;15.00;99.90;;;;;;5073422;28;20119;-73
2021/07/01 06:50:24;;;;;;;12.18;3.85;;;15.00;99.90;;;;;;5050183;28;20380;-72
2021/07/01 06:52:52;;;;;;;16.08;4.13;;;15.00;99.90;;;;;;5058708;28;20082;-72
2021/07/01 06:55:19;;;;;;;13.43;3.63;;;15.00;99.90;;;;;;5064250;28;20035;-72
2021/07/01 06:57:45;;;;;;;14.23;3.65;;;15.00;99.90;;;;;;5055065;28;20047;-72
2021/07/01 07:00:14;;;;;;;14.18;3.20;;;15.00;99.90;;;;;;5067005;28;20143;-72
2021/07/01 07:02:40;;;;;;;16.02;3.65;;;15.10;99.90;;;;;;5076800;28;20040;-72
2021/07/01 07:05:17;;;;;;;16.20;3.90;;;15.10;99.90;;;;;;5066561;28;20035;-72
2021/07/01 07:07:45;;;;;;;20.15;5.13;;;15.10;99.90;;;;;;5050108;28;20029;-72
2021/07/01 07:10:13;;;;;;;19.70;4.13;;;15.10;99.90;;;;;;5071650;28;20033;-72
2021/07/01 07:12:41;;;;;;;19.55;3.97;;;15.10;99.90;;;;;;5058705;28;20029;-72
2021/07/01 07:15:14;;;;;;;20.83;4.20;;;15.10;99.90;;;;;;5067940;28;20028;-74
2021/07/01 07:17:41;;;;;;;18.08;4.03;;;15.10;99.90;;;;;;5067853;28;20040;-72
2021/07/01 07:20:08;;;;;;;21.92;4.68;;;15.10;99.90;;;;;;5066044;28;20027;-72
2021/07/01 07:22:38;;;;;;;20.48;4.60;;;15.10;99.90;;;;;;5052594;28;20044;-72
2021/07/01 07:25:07;;;;;;;19.30;5.22;;;15.20;99.90;;;;;;5053972;28;20025;-72
2021/07/01 07:27:33;;;;;;;16.27;4.57;;;15.10;99.90;;;;;;5069748;28;20037;-74
2021/07/01 07:30:00;;;;;;;15.27;4.32;;;15.20;99.90;;;;;;5068202;28;20031;-72
2021/07/01 07:32:28;;;;;;;18.70;4.20;;;15.20;99.90;;;;;;5051951;28;20043;-72
2021/07/01 07:34:54;;;;;;;19.13;4.75;;;15.30;99.90;;;;;;5067634;28;20029;-72
2021/07/01 07:37:20;;;;;;;16.30;4.55;;;15.30;99.90;;;;;;5070716;28;20038;-72
2021/07/01 07:39:46;;;;;;;15.52;4.47;;;15.30;99.90;;;;;;5052784;28;20028;-72
2021/07/01 07:42:12;;;;;;;15.52;4.22;;;15.40;99.90;;;;;;5067445;28;20082;-72
2021/07/01 07:44:41;;;;;;;19.90;4.90;;;15.50;99.90;;;;;;5066578;28;20032;-72
2021/07/01 07:47:12;;;;;;;21.00;6.07;;;15.50;99.90;;;;;;5053279;28;20025;-73
2021/07/01 07:49:38;;;;;;;25.55;5.25;;;15.60;99.90;;;;;;5069689;28;20043;-72
2021/07/01 07:52:08;;;;;;;19.42;4.95;;;15.70;99.90;;;;;;5056480;28;20063;-72
2021/07/01 07:54:55;;;;;;;23.00;5.68;;;15.80;99.90;;;;;;5070570;28;20032;-73
2021/07/01 07:57:28;;;;;;;33.03;5.97;;;15.80;99.90;;;;;;5067657;28;20667;-72
2021/07/01 07:59:56;;;;;;;20.33;4.53;;;15.90;99.90;;;;;;5053913;28;20032;-72
2021/07/01 08:02:52;;;;;;;11.30;4.47;;;15.90;99.90;;;;;;5050437;28;20044;-72
2021/07/01 08:05:24;;;;;;;17.10;4.47;;;15.90;99.90;;;;;;5067629;28;20036;-72
2021/07/01 08:07:51;;;;;;;26.33;4.32;;;16.00;99.90;;;;;;5070777;28;20033;-72
2021/07/01 08:10:23;;;;;;;18.27;4.65;;;16.00;99.90;;;;;;5068647;28;20488;-72
2021/07/01 08:12:51;;;;;;;22.05;4.07;;;16.10;99.90;;;;;;5050327;28;20044;-72
2021/07/01 08:15:18;;;;;;;18.30;3.92;;;16.30;99.90;;;;;;5049611;28;20052;-74
2021/07/01 08:17:46;;;;;;;12.80;3.67;;;16.40;99.90;;;;;;5051947;28;20123;-72
2021/07/01 08:20:14;;;;;;;20.73;3.60;;;16.50;99.90;;;;;;5065818;28;20035;-73
2021/07/01 08:22:46;;;;;;;12.82;3.30;;;16.60;99.90;;;;;;5068214;28;20029;-72
2021/07/01 08:25:13;;;;;;;12.43;3.90;;;16.60;99.90;;;;;;5066407;28;20058;-73
2021/07/01 08:27:41;;;;;;;16.27;4.32;;;16.60;99.90;;;;;;5066680;28;20499;-72
2021/07/01 08:30:08;;;;;;;20.42;5.38;;;16.60;99.90;;;;;;5067623;28;20481;-72
2021/07/01 08:32:34;;;;;;;11.68;3.47;;;16.70;99.90;;;;;;5050784;28;20060;-71
2021/07/01 08:35:00;;;;;;;14.57;3.90;;;16.80;99.90;;;;;;5063926;28;20036;-72
2021/07/01 08:37:28;;;;;;;14.05;3.67;;;17.00;99.90;;;;;;5067597;28;20037;-72
2021/07/01 08:39:55;;;;;;;15.60;3.85;;;17.10;99.90;;;;;;5069303;28;20040;-72
2021/07/01 08:42:25;;;;;;;15.60;3.65;;;17.20;99.90;;;;;;5069543;28;20154;-73
2021/07/01 08:45:03;;;;;;;13.95;3.10;;;17.40;99.90;;;;;;5066625;28;20146;-72
2021/07/01 08:47:33;;;;;;;12.45;3.70;;;17.50;99.90;;;;;;5069364;28;20071;-73
2021/07/01 08:50:06;;;;;;;16.40;3.88;;;17.60;99.90;;;;;;5055177;28;20400;-72
2021/07/01 08:52:34;;;;;;;15.98;3.67;;;17.60;99.90;;;;;;5055034;28;20143;-72
2021/07/01 08:55:03;;;;;;;12.18;3.20;;;17.60;99.90;;;;;;5064271;28;20381;-72
2021/07/01 08:57:36;;;;;;;10.02;2.60;;;17.60;99.90;;;;;;5049237;28;20063;-72
2021/07/01 09:00:13;;;;;;;9.68;3.28;;;17.50;99.90;;;;;;5050268;28;20045;-71
2021/07/01 09:02:43;;;;;;;11.23;2.60;;;17.40;99.90;;;;;;5065693;28;20626;-72
2021/07/01 09:05:16;;;;;;;9.93;2.72;;;17.40;99.90;;;;;;5050676;28;20040;-73
2021/07/01 09:07:49;;;;;;;9.95;2.85;;;17.40;99.90;;;;;;5071716;28;20028;-71
2021/07/01 09:10:15;;;;;;;10.80;2.30;;;17.50;99.90;;;;;;5069458;28;20036;-72
2021/07/01 09:12:51;;;;;;;9.10;2.70;;;17.50;99.90;;;;;;5066239;28;20056;-73
2021/07/01 09:15:17;;;;;;;12.48;2.22;;;17.60;99.90;;;;;;5065032;28;20025;-73
2021/07/01 09:17:49;;;;;;;7.00;2.28;;;17.70;99.90;;;;;;5067682;28;20032;-72
2021/07/01 09:20:21;;;;;;;13.93;2.63;;;17.70;99.90;;;;;;5067072;28;20484;-72
2021/07/01 09:22:57;;;;;;;9.88;2.53;;;17.60;99.90;;;;;;5067244;28;20532;-72
2021/07/01 09:25:23;;;;;;;12.63;2.80;;;17.60;99.90;;;;;;5069079;28;20127;-73
2021/07/01 09:27:51;;;;;;;9.82;2.70;;;17.50;99.90;;;;;;5071907;28;20025;-72
2021/07/01 09:30:25;;;;;;;6.72;2.22;;;17.50;99.90;;;;;;5073132;28;20048;-73
2021/07/01 09:32:54;;;;;;;6.38;2.40;;;17.40;99.90;;;;;;5070470;28;20064;-72
2021/07/01 09:35:23;;;;;;;5.88;2.08;;;17.40;99.90;;;;;;5073831;28;20060;-73
2021/07/01 09:37:49;;;;;;;11.07;2.30;;;17.30;99.90;;;;;;5071720;28;20032;-72
2021/07/01 09:40:18;;;;;;;10.38;2.30;;;17.40;99.90;;;;;;5057095;28;20033;-72
2021/07/01 09:42:51;;;;;;;6.85;2.17;;;17.30;99.90;;;;;;5074142;28;20147;-73
2021/07/01 09:45:21;;;;;;;7.47;2.20;;;17.30;99.90;;;;;;5068824;28;20032;-72
2021/07/01 09:47:55;;;;;;;15.15;3.85;;;17.30;99.90;;;;;;5051723;28;20507;-72
2021/07/01 09:50:24;;;;;;;8.80;2.42;;;17.30;99.90;;;;;;5054098;28;20045;-72
2021/07/01 09:52:53;;;;;;;9.00;2.83;;;17.30;99.90;;;;;;5072264;28;20039;-71
2021/07/01 09:55:19;;;;;;;18.65;2.80;;;17.30;99.90;;;;;;5072592;28;20016;-72
2021/07/01 09:57:45;;;;;;;8.48;2.83;;;17.30;99.90;;;;;;5068725;28;20039;-72
2021/07/01 10:00:13;;;;;;;10.88;2.85;;;17.40;99.90;;;;;;5052910;28;20090;-72
2021/07/01 10:02:39;;;;;;;7.85;2.47;;;17.50;99.90;;;;;;5059710;28;20028;-72
2021/07/01 10:05:07;;;;;;;8.45;1.98;;;17.60;99.90;;;;;;5056743;28;20025;-72
2021/07/01 10:07:33;;;;;;;6.82;1.88;;;17.70;99.90;;;;;;5065182;28;20092;-72
2021/07/01 10:10:12;;;;;;;11.73;3.50;;;17.90;99.90;;;;;;5068999;28;20111;-73
2021/07/01 10:12:50;;;;;;;12.85;2.72;;;18.00;99.90;;;;;;5067756;28;20044;-72
2021/07/01 10:15:34;;;;;;;7.18;2.53;;;18.20;99.90;;;;;;5054523;28;20040;-72
2021/07/01 10:18:15;;;;;;;8.90;2.30;;;18.20;99.90;;;;;;5048126;28;20035;-73
2021/07/01 10:20:43;;;;;;;11.10;2.65;;;18.10;99.90;;;;;;5068622;28;20110;-73
2021/07/01 10:23:19;;;;;;;9.35;2.17;;;18.10;99.90;;;;;;5054322;28;20052;-72
2021/07/01 10:25:46;;;;;;;11.68;2.42;;;18.00;99.90;;;;;;5064416;28;20036;-72
2021/07/01 10:28:15;;;;;;;7.18;2.65;;;18.10;99.90;;;;;;5068921;28;20032;-72
2021/07/01 10:30:42;;;;;;;9.00;2.28;;;18.20;99.90;;;;;;5051778;28;20027;-71
2021/07/01 10:33:28;;;;;;;12.82;2.20;;;18.20;99.90;;;;;;5051211;28;20115;-72
2021/07/01 10:36:00;;;;;;;10.32;2.30;;;18.30;99.90;;;;;;5051694;28;20055;-72
2021/07/01 10:38:26;;;;;;;19.08;2.50;;;18.30;99.90;;;;;;5050180;28;20076;-72
2021/07/01 10:40:57;;;;;;;15.05;2.50;;;18.20;99.90;;;;;;5066148;28;20119;-72
2021/07/01 10:43:44;;;;;;;9.55;2.85;;;18.30;99.90;;;;;;5051100;28;20522;-72
2021/07/01 10:46:11;;;;;;;14.93;2.65;;;18.30;99.90;;;;;;5050808;28;20044;-72
2021/07/01 10:48:36;;;;;;;11.85;3.00;;;18.40;99.90;;;;;;5065821;28;20052;-72
2021/07/01 10:51:13;;;;;;;13.88;3.00;;;18.40;99.90;;;;;;5070390;28;20154;-72
2021/07/01 10:53:41;;;;;;;13.35;3.30;;;18.50;99.90;;;;;;5062811;28;20072;-72
2021/07/01 10:56:14;;;;;;;13.57;2.67;;;18.40;99.90;;;;;;5051936;28;20037;-72
2021/07/01 10:58:41;;;;;;;14.60;3.00;;;18.40;99.90;;;;;;5054473;28;20041;-73
2021/07/01 11:01:07;;;;;;;17.45;2.83;;;18.40;99.90;;;;;;5070709;28;20082;-72
2021/07/01 11:03:34;;;;;;;18.88;3.55;;;18.50;99.90;;;;;;5067140;28;20412;-71
2021/07/01 11:06:04;;;;;;;11.18;4.00;;;18.50;99.90;;;;;;5060183;28;20047;-72
2021/07/01 11:08:36;;;;;;;9.00;2.85;;;18.60;99.90;;;;;;5065468;28;20078;-74
2021/07/01 11:11:18;;;;;;;11.20;3.38;;;18.50;99.90;;;;;;5064334;28;20044;-73
2021/07/01 11:13:55;;;;;;;12.05;2.55;;;18.40;99.90;;;;;;5068617;28;20104;-72
2021/07/01 11:16:30;;;;;;;11.63;2.95;;;18.40;99.90;;;;;;5068033;28;20086;-73
2021/07/01 11:18:56;;;;;;;15.63;3.05;;;18.50;99.90;;;;;;5067966;28;20024;-72
2021/07/01 11:21:22;;;;;;;19.00;3.10;;;18.50;99.90;;;;;;5050333;28;20040;-72
2021/07/01 11:23:51;;;;;;;17.15;3.00;;;18.40;99.90;;;;;;5055020;28;20047;-73
2021/07/01 11:26:32;;;;;;;12.75;2.75;;;18.50;99.90;;;;;;5068841;28;20040;-72
2021/07/01 11:29:03;;;;;;;16.00;3.17;;;18.60;99.90;;;;;;5067941;28;20040;-72
2021/07/01 11:31:34;;;;;;;16.00;2.97;;;18.70;99.90;;;;;;5066233;28;20033;-73
2021/07/01 11:34:01;;;;;;;9.63;2.88;;;18.80;99.90;;;;;;5067565;28;20044;-71
2021/07/01 11:36:27;;;;;;;10.32;2.88;;;18.80;99.90;;;;;;5065542;28;20040;-72
2021/07/01 11:39:10;;;;;;;15.90;3.03;;;18.80;99.90;;;;;;5070754;28;20084;-71
2021/07/01 11:41:36;;;;;;;25.80;4.07;;;18.90;99.90;;;;;;5069836;28;20169;-73
2021/07/01 11:44:03;;;;;;;10.20;3.03;;;18.90;99.90;;;;;;5070545;28;20381;-72
2021/07/01 11:46:28;;;;;;;18.10;4.75;;;18.90;99.90;;;;;;5069173;28;20624;-72
2021/07/01 11:48:55;;;;;;;13.73;3.63;;;18.90;99.90;;;;;;5068034;28;20036;-72
2021/07/01 11:51:23;;;;;;;16.95;3.50;;;18.90;99.90;;;;;;5068541;28;20157;-72
2021/07/01 11:53:49;;;;;;;15.73;3.47;;;19.00;99.90;;;;;;5052521;28;20028;-72
2021/07/01 11:56:15;;;;;;;17.75;3.05;;;18.90;99.90;;;;;;5065223;28;20159;-73
2021/07/01 11:58:43;;;;;;;13.60;2.90;;;18.90;99.90;;;;;;5067779;28;20127;-73
2021/07/01 12:01:09;;;;;;;12.82;2.85;;;18.80;99.90;;;;;;5067036;28;20025;-72
2021/07/01 12:03:36;;;;;;;11.75;3.00;;;18.60;99.90;;;;;;5065430;28;20090;-71
2021/07/01 12:06:03;;;;;;;16.58;4.05;;;18.60;99.90;;;;;;5069881;28;20025;-72
2021/07/01 12:08:29;;;;;;;14.73;3.53;;;18.60;99.90;;;;;;5067107;28;20036;-71
2021/07/01 12:11:02;;;;;;;14.13;3.35;;;18.60;99.90;;;;;;5066377;28;20052;-72
2021/07/01 12:13:31;;;;;;;13.10;2.75;;;18.60;99.90;;;;;;5064482;28;20078;-72
2021/07/01 12:16:07;;;;;;;14.32;3.03;;;18.60;99.90;;;;;;5048180;28;20028;-72
2021/07/01 12:18:59;;;;;;;15.43;2.92;;;18.70;99.90;;;;;;5065415;28;20047;-73
2021/07/01 12:21:28;;;;;;;16.85;3.40;;;18.70;99.90;;;;;;5043608;28;20021;-72
2021/07/01 12:23:59;;;;;;;13.90;3.28;;;18.80;99.90;;;;;;5069537;28;20032;-73
2021/07/01 12:26:31;;;;;;;15.27;3.38;;;18.90;99.90;;;;;;5052425;28;20106;-71
2021/07/01 12:28:57;;;;;;;12.88;2.85;;;18.80;99.90;;;;;;5050230;28;20036;-71
2021/07/01 12:31:25;;;;;;;17.30;3.58;;;18.70;99.90;;;;;;5068579;28;20044;-73
2021/07/01 12:34:00;;;;;;;13.82;3.65;;;18.60;99.90;;;;;;5069949;28;20044;-72
2021/07/01 12:36:32;;;;;;;15.13;2.65;;;18.60;99.90;;;;;;5064550;28;20044;-71
2021/07/01 12:39:15;;;;;;;21.23;3.95;;;18.60;99.90;;;;;;5051765;28;20102;-72
2021/07/01 12:41:44;;;;;;;18.75;3.95;;;18.50;99.90;;;;;;5072765;28;20080;-72
2021/07/01 12:44:21;;;;;;;16.85;3.40;;;18.50;99.90;;;;;;5067765;28;20033;-73